createdAt,value
2022-11-16T00:01:33.711Z,93.30
2022-11-16T00:04:02.576Z,93.30
2022-11-16T00:06:29.908Z,93.40
2022-11-16T00:09:18.400Z,93.50
2022-11-16T00:11:45.980Z,93.40
2022-11-16T00:14:13.149Z,93.50
2022-11-16T00:16:40.431Z,93.60
2022-11-16T00:19:08.243Z,93.60
2022-11-16T00:21:35.502Z,94.00
2022-11-16T00:24:03.759Z,93.70
2022-11-16T00:26:31.138Z,93.80
2022-11-16T00:28:58.388Z,93.80
2022-11-16T00:31:25.601Z,93.90
2022-11-16T00:33:52.738Z,94.00
2022-11-16T00:36:19.985Z,93.90
2022-11-16T00:38:47.586Z,93.60
2022-11-16T00:41:14.947Z,94.00
2022-11-16T00:43:42.184Z,94.10
2022-11-16T00:46:09.898Z,94.10
2022-11-16T00:48:37.106Z,94.20
2022-11-16T00:51:04.689Z,94.20
2022-11-16T00:53:32.086Z,94.60
2022-11-16T00:55:59.297Z,94.20
2022-11-16T00:58:29.809Z,94.20
2022-11-16T01:01:08.413Z,94.30
2022-11-16T01:03:36.788Z,94.20
2022-11-16T01:06:05.863Z,94.20
2022-11-16T01:08:33.653Z,94.20
2022-11-16T01:11:21.088Z,94.20
2022-11-16T01:13:48.852Z,94.30
2022-11-16T01:16:17.352Z,94.30
2022-11-16T01:18:48.173Z,94.30
2022-11-16T01:21:15.309Z,94.20
2022-11-16T01:23:42.549Z,94.20
2022-11-16T01:26:09.889Z,94.20
2022-11-16T01:28:38.467Z,94.10
2022-11-16T01:31:08.034Z,94.20
2022-11-16T01:33:37.617Z,94.20
2022-11-16T01:36:14.534Z,94.20
2022-11-16T01:38:43.839Z,94.20
2022-11-16T01:41:17.447Z,94.10
2022-11-16T01:44:02.909Z,94.00
2022-11-16T01:46:35.935Z,94.20
2022-11-16T01:49:12.906Z,94.40
2022-11-16T01:51:42.499Z,94.30
2022-11-16T01:54:13.245Z,94.30
2022-11-16T01:56:52.034Z,94.20
2022-11-16T01:59:31.453Z,94.20
2022-11-16T02:02:00.362Z,94.20
2022-11-16T02:04:29.877Z,94.20
2022-11-16T02:07:15.489Z,94.10
2022-11-16T02:10:04.647Z,94.20
2022-11-16T02:13:01.433Z,94.20
2022-11-16T02:16:12.517Z,94.20
2022-11-16T02:19:17.440Z,94.30
2022-11-16T02:21:51.969Z,94.20
2022-11-16T02:24:43.476Z,94.20
2022-11-16T02:27:26.041Z,94.20
2022-11-16T02:29:55.316Z,94.20
2022-11-16T02:33:02.489Z,94.30
2022-11-16T02:35:38.863Z,94.20
2022-11-16T02:38:17.182Z,93.80
2022-11-16T02:40:50.022Z,94.20
2022-11-16T02:44:08.649Z,94.10
2022-11-16T02:46:41.154Z,94.10
2022-11-16T02:49:13.584Z,94.10
2022-11-16T02:51:42.258Z,94.00
2022-11-16T02:54:18.134Z,94.00
2022-11-16T02:57:02.170Z,94.00
2022-11-16T02:59:44.278Z,94.00
2022-11-16T03:02:32.690Z,94.10
2022-11-16T03:05:11.534Z,94.10
2022-11-16T03:07:50.745Z,94.20
2022-11-16T03:10:39.946Z,94.30
2022-11-16T03:13:11.525Z,94.10
2022-11-16T03:15:41.011Z,94.20
2022-11-16T03:18:12.972Z,94.10
2022-11-16T03:20:43.623Z,94.00
2022-11-16T03:23:12.619Z,94.10
2022-11-16T03:25:55.068Z,94.00
2022-11-16T03:28:27.383Z,94.10
2022-11-16T03:31:02.342Z,94.10
2022-11-16T03:33:38.769Z,94.10
2022-11-16T03:36:31.590Z,94.20
2022-11-16T03:39:04.565Z,94.00
2022-11-16T03:41:36.897Z,93.80
2022-11-16T03:44:04.853Z,93.90
2022-11-16T03:46:32.097Z,94.00
2022-11-16T03:49:01.194Z,93.90
2022-11-16T03:51:32.703Z,93.90
2022-11-16T03:53:59.916Z,93.90
2022-11-16T03:56:27.905Z,93.90
2022-11-16T03:58:55.189Z,94.00
2022-11-16T04:01:22.645Z,94.00
2022-11-16T04:03:50.531Z,94.10
2022-11-16T04:06:38.113Z,94.00
2022-11-16T04:09:24.823Z,94.00
2022-11-16T04:12:10.847Z,94.10
2022-11-16T04:14:57.744Z,94.10
2022-11-16T04:17:46.383Z,94.00
2022-11-16T04:20:33.492Z,94.10
2022-11-16T04:23:25.890Z,94.10
2022-11-16T04:25:53.690Z,94.10
2022-11-16T04:28:26.168Z,94.10
2022-11-16T04:31:21.027Z,94.10
2022-11-16T04:34:21.647Z,94.20
2022-11-16T04:37:11.064Z,94.10
2022-11-16T04:39:39.881Z,94.10
2022-11-16T04:42:17.200Z,94.20
2022-11-16T04:45:05.332Z,94.10
2022-11-16T04:47:38.445Z,94.10
2022-11-16T04:50:06.203Z,94.10
2022-11-16T04:52:34.369Z,94.20
2022-11-16T04:55:01.805Z,94.20
2022-11-16T04:57:29.482Z,94.10
2022-11-16T04:59:57.063Z,94.20
2022-11-16T05:02:24.824Z,94.20
2022-11-16T05:04:56.248Z,94.10
2022-11-16T05:07:24.632Z,94.20
2022-11-16T05:09:55.757Z,94.10
2022-11-16T05:12:24.720Z,94.10
2022-11-16T05:14:56.659Z,94.10
2022-11-16T05:17:27.245Z,94.10
2022-11-16T05:20:14.435Z,93.70
2022-11-16T05:22:56.274Z,93.90
2022-11-16T05:25:25.721Z,93.90
2022-11-16T05:27:53.969Z,93.50
2022-11-16T05:30:21.386Z,93.90
2022-11-16T05:32:49.392Z,93.90
2022-11-16T05:35:19.245Z,93.90
2022-11-16T05:37:47.264Z,93.80
2022-11-16T05:40:14.709Z,93.90
2022-11-16T05:42:50.657Z,93.90
2022-11-16T05:45:21.123Z,93.80
2022-11-16T05:47:49.057Z,93.80
2022-11-16T05:50:16.863Z,93.80
2022-11-16T05:52:47.051Z,93.80
2022-11-16T05:55:14.173Z,93.80
2022-11-16T05:57:43.832Z,93.80
2022-11-16T06:00:12.290Z,93.80
2022-11-16T06:02:42.543Z,93.70
2022-11-16T06:05:18.586Z,93.70
2022-11-16T06:07:46.934Z,93.70
2022-11-16T06:10:14.497Z,93.30
2022-11-16T06:12:44.034Z,93.60
2022-11-16T06:15:11.209Z,93.60
2022-11-16T06:17:38.476Z,93.70
2022-11-16T06:20:07.198Z,93.30
2022-11-16T06:22:34.497Z,93.70
2022-11-16T06:25:01.828Z,93.70
2022-11-16T06:27:29.500Z,93.80
2022-11-16T06:29:56.743Z,93.70
2022-11-16T06:32:23.970Z,93.60
2022-11-16T06:34:51.246Z,93.60
2022-11-16T06:37:18.843Z,93.60
2022-11-16T06:39:46.049Z,93.50
2022-11-16T06:42:13.611Z,93.60
2022-11-16T06:44:41.392Z,93.60
2022-11-16T06:47:10.404Z,93.50
2022-11-16T06:49:37.631Z,93.50
2022-11-16T06:52:11.271Z,93.50
2022-11-16T06:54:38.473Z,93.40
2022-11-16T06:57:05.951Z,93.40
2022-11-16T06:59:33.177Z,92.90
2022-11-16T07:02:00.663Z,93.20
2022-11-16T07:04:32.404Z,93.10
2022-11-16T07:06:59.768Z,93.10
2022-11-16T07:09:27.516Z,93.10
2022-11-16T07:11:54.736Z,93.00
2022-11-16T07:14:22.693Z,93.00
2022-11-16T07:16:53.671Z,93.10
2022-11-16T07:19:23.862Z,93.00
2022-11-16T07:21:51.001Z,92.90
2022-11-16T07:24:19.486Z,93.20
2022-11-16T07:26:47.299Z,92.60
2022-11-16T07:29:19.341Z,92.60
2022-11-16T07:32:05.350Z,92.50
2022-11-16T07:34:57.151Z,92.50
2022-11-16T07:37:26.392Z,92.50
2022-11-16T07:39:53.928Z,92.40
2022-11-16T07:42:22.954Z,92.40
2022-11-16T07:45:00.507Z,92.40
2022-11-16T07:47:27.649Z,92.30
2022-11-16T07:49:55.599Z,92.20
2022-11-16T07:52:26.137Z,91.90
2022-11-16T07:54:57.346Z,91.80
2022-11-16T07:57:26.847Z,92.10
2022-11-16T07:59:56.040Z,91.30
2022-11-16T08:02:23.435Z,91.60
2022-11-16T08:04:51.566Z,91.60
2022-11-16T08:07:23.553Z,91.50
2022-11-16T08:09:55.423Z,91.50
2022-11-16T08:12:23.009Z,91.40
2022-11-16T08:14:50.344Z,92.10
2022-11-16T08:17:17.543Z,93.20
2022-11-16T08:19:45.025Z,91.30
2022-11-16T08:22:15.160Z,84.90
2022-11-16T08:24:43.785Z,76.10
2022-11-16T08:27:11.360Z,71.70
2022-11-16T08:29:38.676Z,65.30
2022-11-16T08:32:08.816Z,54.80
2022-11-16T08:34:36.434Z,51.80
2022-11-16T08:37:04.765Z,51.60
2022-11-16T08:39:44.417Z,51.20
2022-11-16T08:42:11.795Z,50.30
2022-11-16T08:44:40.254Z,49.80
2022-11-16T08:47:13.024Z,48.90
2022-11-16T08:49:53.082Z,46.90
2022-11-16T08:52:21.504Z,47.10
2022-11-16T08:54:50.501Z,45.60
2022-11-16T08:57:18.130Z,44.10
2022-11-16T08:59:48.684Z,43.90
2022-11-16T09:02:15.926Z,42.60
2022-11-16T09:04:43.732Z,42.20
2022-11-16T09:07:10.943Z,42.00
2022-11-16T09:09:38.108Z,41.70
2022-11-16T09:12:05.416Z,42.60
2022-11-16T09:14:32.519Z,42.00
2022-11-16T09:16:59.632Z,41.50
2022-11-16T09:19:26.819Z,41.40
2022-11-16T09:21:53.986Z,40.80
2022-11-16T09:24:21.283Z,39.40
2022-11-16T09:26:48.425Z,38.60
2022-11-16T09:29:17.393Z,38.70
2022-11-16T09:31:45.629Z,37.50
2022-11-16T09:34:13.247Z,38.70
2022-11-16T09:36:40.573Z,37.50
2022-11-16T09:39:29.501Z,36.60
2022-11-16T09:42:33.035Z,36.10
2022-11-16T09:45:41.145Z,40.10
2022-11-16T09:48:12.307Z,39.20
2022-11-16T09:51:02.848Z,39.70
2022-11-16T09:53:47.434Z,37.60
2022-11-16T09:56:25.849Z,36.00
2022-11-16T09:59:00.257Z,38.90
2022-11-16T10:01:32.746Z,42.10
2022-11-16T10:04:20.687Z,46.00
2022-11-16T10:06:59.513Z,49.50
2022-11-16T10:09:27.814Z,48.90
2022-11-16T10:11:54.924Z,49.60
2022-11-16T10:14:24.812Z,45.50
2022-11-16T10:17:11.063Z,45.60
2022-11-16T10:19:54.704Z,49.70
2022-11-16T10:23:10.030Z,53.40
2022-11-16T10:25:45.068Z,59.40
2022-11-16T10:28:36.470Z,45.10
2022-11-16T10:31:34.529Z,43.10
2022-11-16T10:34:03.886Z,39.60
2022-11-16T10:36:35.917Z,45.00
2022-11-16T10:39:09.650Z,51.30
2022-11-16T10:41:42.559Z,47.20
2022-11-16T10:44:30.262Z,38.90
2022-11-16T10:47:28.202Z,42.30
2022-11-16T10:50:03.350Z,45.00
2022-11-16T10:52:30.523Z,46.70
2022-11-16T10:54:57.658Z,43.00
2022-11-16T10:57:26.434Z,41.70
2022-11-16T10:59:58.932Z,37.60
2022-11-16T11:02:31.217Z,38.20
2022-11-16T11:05:17.519Z,35.70
2022-11-16T11:07:58.362Z,34.20
2022-11-16T11:10:41.405Z,32.10
2022-11-16T11:13:11.778Z,31.20
2022-11-16T11:15:40.441Z,28.60
2022-11-16T11:18:29.677Z,28.10
2022-11-16T11:21:12.593Z,27.70
2022-11-16T11:23:52.400Z,28.10
2022-11-16T11:26:40.933Z,28.00
2022-11-16T11:29:34.655Z,28.80
2022-11-16T11:32:07.053Z,29.30
2022-11-16T11:34:41.521Z,28.80
2022-11-16T11:37:20.177Z,29.40
2022-11-16T11:39:47.377Z,29.80
2022-11-16T11:42:14.566Z,29.20
2022-11-16T11:44:52.623Z,29.40
2022-11-16T11:47:56.049Z,31.80
2022-11-16T11:50:16.924Z,32.40
2022-11-16T11:53:18.009Z,32.00
2022-11-16T11:55:45.197Z,31.30
2022-11-16T11:58:18.053Z,31.40
2022-11-16T12:00:51.062Z,31.20
2022-11-16T12:03:53.059Z,29.70
2022-11-16T12:06:30.919Z,29.80
2022-11-16T12:09:06.175Z,30.80
2022-11-16T12:11:36.288Z,31.80
2022-11-16T12:14:44.294Z,33.40
2022-11-16T12:17:31.391Z,40.70
2022-11-16T12:20:15.062Z,48.20
2022-11-16T12:23:19.360Z,55.40
2022-11-16T12:26:07.709Z,60.50
2022-11-16T12:29:12.667Z,63.00
2022-11-16T12:32:07.673Z,64.60
2022-11-16T12:34:40.587Z,66.20
2022-11-16T12:37:15.201Z,66.80
2022-11-16T12:40:05.616Z,68.30
2022-11-16T12:43:03.425Z,57.80
2022-11-16T12:46:10.113Z,54.70
2022-11-16T12:49:04.132Z,49.50
2022-11-16T12:51:55.589Z,48.60
2022-11-16T12:54:28.831Z,51.50
2022-11-16T12:57:07.019Z,50.40
2022-11-16T13:00:16.425Z,47.70
2022-11-16T13:02:46.315Z,44.90
2022-11-16T13:05:18.856Z,46.00
2022-11-16T13:07:50.460Z,44.90
2022-11-16T13:10:22.759Z,42.30
2022-11-16T13:13:15.124Z,37.70
2022-11-16T13:15:46.181Z,36.30
2022-11-16T13:18:16.741Z,35.40
2022-11-16T13:20:57.833Z,40.30
2022-11-16T13:23:45.268Z,46.30
2022-11-16T13:26:41.358Z,52.70
2022-11-16T13:29:28.558Z,49.80
2022-11-16T13:32:24.759Z,50.00
2022-11-16T13:34:52.256Z,51.80
2022-11-16T13:37:37.647Z,51.70
2022-11-16T13:40:04.921Z,55.10
2022-11-16T13:43:02.186Z,53.70
2022-11-16T13:45:55.422Z,55.00
2022-11-16T13:48:28.024Z,59.30
2022-11-16T13:50:57.648Z,59.90
2022-11-16T13:56:28.612Z,50.80
2022-11-16T13:58:58.327Z,46.20
2022-11-16T14:01:26.939Z,43.30
2022-11-16T14:04:32.626Z,42.10
2022-11-16T14:07:00.304Z,43.80
2022-11-16T14:09:42.447Z,45.00
2022-11-16T14:12:37.363Z,43.10
2022-11-16T14:15:21.865Z,42.70
2022-11-16T14:18:09.145Z,44.70
2022-11-16T14:20:58.231Z,45.30
2022-11-16T14:23:25.300Z,46.70
2022-11-16T14:26:10.955Z,47.60
2022-11-16T14:28:59.770Z,49.70
2022-11-16T14:31:45.244Z,53.90
2022-11-16T14:34:19.571Z,58.50
2022-11-16T14:36:47.987Z,61.00
2022-11-16T14:39:24.402Z,62.40
2022-11-16T14:41:51.871Z,63.90
2022-11-16T14:44:26.465Z,65.70
2022-11-16T14:46:53.898Z,65.50
2022-11-16T14:49:21.903Z,64.00
2022-11-16T14:51:55.788Z,63.60
2022-11-16T14:54:46.401Z,63.20
2022-11-16T14:57:19.182Z,62.80
2022-11-16T14:59:46.317Z,63.20
2022-11-16T15:02:21.142Z,63.40
2022-11-16T15:04:49.724Z,64.20
2022-11-16T15:07:18.461Z,65.40
2022-11-16T15:09:52.023Z,66.20
2022-11-16T15:12:41.416Z,67.50
2022-11-16T15:15:11.274Z,67.80
2022-11-16T15:17:40.337Z,68.60
2022-11-16T15:20:18.582Z,69.30
2022-11-16T15:22:50.341Z,69.90
2022-11-16T15:25:35.563Z,70.60
2022-11-16T15:28:19.070Z,71.10
2022-11-16T15:30:58.569Z,72.00
2022-11-16T15:33:32.671Z,72.70
2022-11-16T15:36:00.110Z,73.20
2022-11-16T15:38:29.893Z,73.80
2022-11-16T15:41:00.095Z,74.30
2022-11-16T15:43:45.242Z,74.80
2022-11-16T15:46:25.062Z,75.30
2022-11-16T15:48:53.353Z,75.10
2022-11-16T15:51:27.393Z,76.00
2022-11-16T15:53:55.672Z,76.40
2022-11-16T15:56:32.305Z,76.70
2022-11-16T15:59:09.319Z,77.00
2022-11-16T16:01:44.971Z,77.30
2022-11-16T16:04:17.258Z,77.70
2022-11-16T16:06:51.635Z,77.90
2022-11-16T16:09:40.008Z,78.30
2022-11-16T16:12:19.520Z,78.70
2022-11-16T16:14:49.070Z,78.90
2022-11-16T16:17:23.472Z,79.10
2022-11-16T16:19:56.117Z,79.30
2022-11-16T16:22:33.176Z,79.50
2022-11-16T16:25:01.523Z,79.60
2022-11-16T16:27:30.788Z,79.90
2022-11-16T16:30:02.496Z,79.90
2022-11-16T16:32:31.766Z,80.10
2022-11-16T16:35:01.109Z,80.30
2022-11-16T16:37:30.670Z,80.50
2022-11-16T16:39:58.380Z,80.70
2022-11-16T16:42:25.888Z,80.90
2022-11-16T16:44:53.558Z,81.10
2022-11-16T16:47:21.103Z,81.30
2022-11-16T16:49:49.354Z,81.50
2022-11-16T16:52:16.541Z,81.70
2022-11-16T16:54:43.689Z,81.90
2022-11-16T16:57:18.055Z,82.00
2022-11-16T16:59:47.976Z,81.40
2022-11-16T17:02:16.206Z,82.40
2022-11-16T17:04:43.975Z,82.40
2022-11-16T17:07:11.196Z,82.50
2022-11-16T17:09:38.450Z,82.70
2022-11-16T17:12:05.845Z,82.80
2022-11-16T17:14:33.012Z,82.90
2022-11-16T17:17:00.126Z,83.00
2022-11-16T17:19:28.492Z,82.40
2022-11-16T17:21:55.845Z,83.30
2022-11-16T17:24:22.967Z,83.50
2022-11-16T17:26:50.536Z,83.50
2022-11-16T17:29:17.697Z,83.70
2022-11-16T17:31:47.181Z,83.80
2022-11-16T17:34:14.593Z,83.80
2022-11-16T17:36:43.081Z,83.90
2022-11-16T17:39:10.475Z,84.00
2022-11-16T17:41:37.711Z,84.00
2022-11-16T17:44:06.047Z,84.10
2022-11-16T17:46:33.222Z,84.20
2022-11-16T17:49:00.397Z,84.20
2022-11-16T17:51:29.794Z,84.30
2022-11-16T17:53:56.990Z,84.30
2022-11-16T17:56:26.717Z,84.50
2022-11-16T17:59:00.809Z,84.40
2022-11-16T18:01:28.335Z,85.50
2022-11-16T18:03:55.825Z,84.50
2022-11-16T18:06:24.988Z,84.50
2022-11-16T18:08:53.877Z,84.50
2022-11-16T18:11:23.407Z,84.50
2022-11-16T18:14:00.299Z,84.30
2022-11-16T18:16:30.459Z,84.10
2022-11-16T18:19:02.749Z,84.10
2022-11-16T18:21:30.661Z,84.00
2022-11-16T18:24:00.846Z,84.00
2022-11-16T18:26:27.999Z,83.80
2022-11-16T18:28:55.146Z,83.80
2022-11-16T18:31:23.768Z,83.80
2022-11-16T18:33:51.886Z,83.70
2022-11-16T18:36:20.634Z,83.60
2022-11-16T18:38:47.931Z,83.60
2022-11-16T18:41:23.756Z,83.60
2022-11-16T18:43:59.095Z,83.50
2022-11-16T18:46:32.931Z,83.60
2022-11-16T18:49:00.563Z,83.40
2022-11-16T18:51:28.628Z,83.40
2022-11-16T18:53:56.103Z,83.50
2022-11-16T18:56:23.704Z,83.50
2022-11-16T18:58:52.729Z,83.40
2022-11-16T19:01:22.758Z,83.40
2022-11-16T19:03:50.767Z,83.40
2022-11-16T19:06:18.570Z,83.30
2022-11-16T19:08:50.439Z,83.30
2022-11-16T19:11:21.067Z,83.30
2022-11-16T19:13:52.810Z,83.20
2022-11-16T19:16:20.005Z,83.20
2022-11-16T19:18:47.188Z,83.00
2022-11-16T19:21:18.285Z,83.00
2022-11-16T19:23:47.449Z,82.90
2022-11-16T19:26:16.468Z,82.70
2022-11-16T19:28:45.897Z,82.70
2022-11-16T19:31:19.076Z,82.70
2022-11-16T19:33:46.489Z,82.70
2022-11-16T19:36:18.826Z,82.70
2022-11-16T19:38:47.790Z,82.60
2022-11-16T19:41:16.888Z,82.40
2022-11-16T19:43:44.119Z,82.40
2022-11-16T19:46:21.341Z,82.40
2022-11-16T19:48:49.336Z,82.30
2022-11-16T19:51:24.835Z,82.20
2022-11-16T19:53:52.626Z,82.10
2022-11-16T19:56:21.409Z,82.10
2022-11-16T19:58:49.178Z,82.10
2022-11-16T20:01:23.549Z,81.90
2022-11-16T20:03:51.673Z,81.90
2022-11-16T20:06:41.185Z,81.80
2022-11-16T20:09:11.207Z,81.80
2022-11-16T20:11:40.797Z,81.80
2022-11-16T20:14:11.458Z,81.80
2022-11-16T20:16:40.805Z,81.90
2022-11-16T20:19:09.482Z,81.90
2022-11-16T20:21:42.030Z,81.70
2022-11-16T20:24:14.482Z,81.80
2022-11-16T20:26:47.136Z,81.70
2022-11-16T20:29:16.101Z,81.80
2022-11-16T20:31:45.343Z,81.70
2022-11-16T20:34:15.013Z,81.60
2022-11-16T20:36:43.824Z,81.60
2022-11-16T20:39:16.252Z,81.60
2022-11-16T20:41:43.977Z,81.40
2022-11-16T20:44:16.482Z,81.40
2022-11-16T20:46:45.114Z,81.30
2022-11-16T20:49:12.652Z,81.20
2022-11-16T20:51:39.842Z,81.20
2022-11-16T20:54:07.126Z,81.20
2022-11-16T20:56:34.331Z,81.30
2022-11-16T20:59:03.634Z,80.50
2022-11-16T21:01:33.826Z,81.30
2022-11-16T21:04:03.222Z,81.30
2022-11-16T21:06:31.080Z,81.30
2022-11-16T21:08:58.554Z,80.50
2022-11-16T21:11:28.958Z,81.30
2022-11-16T21:14:15.147Z,81.40
2022-11-16T21:16:42.347Z,81.40
2022-11-16T21:19:10.003Z,81.50
2022-11-16T21:21:40.801Z,81.40
2022-11-16T21:24:10.965Z,81.50
2022-11-16T21:26:38.256Z,81.60
2022-11-16T21:29:05.544Z,81.60
2022-11-16T21:31:36.042Z,81.50
2022-11-16T21:34:03.416Z,81.60
2022-11-16T21:36:31.899Z,81.70
2022-11-16T21:38:59.896Z,81.60
2022-11-16T21:41:27.391Z,81.50
2022-11-16T21:43:54.607Z,81.50
2022-11-16T21:46:24.755Z,81.50
2022-11-16T21:48:53.705Z,81.40
2022-11-16T21:51:25.104Z,81.30
2022-11-16T21:53:52.999Z,81.30
2022-11-16T21:56:22.370Z,81.30
2022-11-16T21:58:55.434Z,81.30
2022-11-16T22:01:23.560Z,81.10
2022-11-16T22:04:10.770Z,81.20
2022-11-16T22:06:56.608Z,81.20
2022-11-16T22:09:23.809Z,81.10
2022-11-16T22:11:50.985Z,81.10
2022-11-16T22:14:18.084Z,81.10
2022-11-16T22:16:45.221Z,81.00
2022-11-16T22:19:12.330Z,80.90
2022-11-16T22:21:39.497Z,80.90
2022-11-16T22:24:07.162Z,80.90
2022-11-16T22:26:34.367Z,81.00
2022-11-16T22:29:02.029Z,80.90
2022-11-16T22:31:29.140Z,81.00
2022-11-16T22:33:56.265Z,81.00
2022-11-16T22:36:23.438Z,80.80
2022-11-16T22:38:50.629Z,80.70
2022-11-16T22:41:17.863Z,80.80
2022-11-16T22:43:44.992Z,80.70
2022-11-16T22:46:12.124Z,80.80
2022-11-16T22:48:40.037Z,80.70
2022-11-16T22:51:18.024Z,80.80
2022-11-16T22:53:45.277Z,80.80
2022-11-16T22:56:12.886Z,81.00
2022-11-16T22:58:40.332Z,80.90
2022-11-16T23:01:08.829Z,80.90
2022-11-16T23:03:37.040Z,81.10
2022-11-16T23:06:05.356Z,81.10
2022-11-16T23:08:33.744Z,81.70
2022-11-16T23:11:23.828Z,82.30
2022-11-16T23:14:11.266Z,83.00
2022-11-16T23:16:39.876Z,83.60
2022-11-16T23:19:28.388Z,84.20
2022-11-16T23:22:15.912Z,84.60
2022-11-16T23:25:02.197Z,85.00
2022-11-16T23:27:42.516Z,85.50
2022-11-16T23:30:12.720Z,85.90
2022-11-16T23:32:41.804Z,86.30
2022-11-16T23:35:10.026Z,86.60
2022-11-16T23:37:56.984Z,86.90
2022-11-16T23:40:30.615Z,87.30
2022-11-16T23:43:17.096Z,87.60
2022-11-16T23:45:44.940Z,88.20
2022-11-16T23:48:14.733Z,88.50
2022-11-16T23:50:42.767Z,89.00
2022-11-16T23:53:10.959Z,89.10
2022-11-16T23:55:39.299Z,89.60
2022-11-16T23:58:11.150Z,90.00
